createdAt,value
2022-09-28T00:01:14.771Z,99433.25
2022-09-28T00:03:17.316Z,99430.28
2022-09-28T00:05:19.941Z,99440.66
2022-09-28T00:07:22.530Z,99434.44
2022-09-28T00:09:25.087Z,99438.25
2022-09-28T00:11:28.582Z,99433.34
2022-09-28T00:13:32.368Z,99428.13
2022-09-28T00:15:35.720Z,99423.56
2022-09-28T00:17:38.262Z,99423.31
2022-09-28T00:19:40.818Z,99419.44
2022-09-28T00:21:43.393Z,99417.00
2022-09-28T00:24:04.587Z,99425.47
2022-09-28T00:26:07.283Z,99412.66
2022-09-28T00:28:09.782Z,99413.00
2022-09-28T00:30:13.008Z,99419.78
2022-09-28T00:32:16.800Z,99410.03
2022-09-28T00:34:20.857Z,99412.19
2022-09-28T00:36:28.450Z,99403.25
2022-09-28T00:38:31.049Z,99410.28
2022-09-28T00:40:33.650Z,99416.31
2022-09-28T00:42:36.190Z,99415.25
2022-09-28T00:45:01.250Z,99404.09
2022-09-28T00:47:21.654Z,99407.94
2022-09-28T00:49:39.809Z,99415.31
2022-09-28T00:51:45.454Z,99416.91
2022-09-28T00:53:50.091Z,99407.41
2022-09-28T00:55:57.492Z,99420.75
2022-09-28T00:58:03.918Z,99413.38
2022-09-28T01:00:07.524Z,99420.22
2022-09-28T01:02:10.744Z,99411.75
2022-09-28T01:04:13.419Z,99415.34
2022-09-28T01:06:20.924Z,99412.09
2022-09-28T01:08:25.167Z,99418.09
2022-09-28T01:10:29.313Z,99417.56
2022-09-28T01:12:31.868Z,99424.94
2022-09-28T01:14:34.784Z,99414.03
2022-09-28T01:16:43.064Z,99419.22
2022-09-28T01:18:45.550Z,99414.03
2022-09-28T01:21:20.418Z,99403.22
2022-09-28T01:23:56.334Z,99408.66
2022-09-28T01:26:35.062Z,99395.69
2022-09-28T01:28:38.299Z,99413.88
2022-09-28T01:30:58.180Z,99408.44
2022-09-28T01:33:08.857Z,99404.06
2022-09-28T01:35:34.445Z,99405.66
2022-09-28T01:37:47.467Z,99392.59
2022-09-28T01:39:52.290Z,99391.25
2022-09-28T01:41:57.987Z,99385.53
2022-09-28T01:44:03.438Z,99395.28
2022-09-28T01:46:13.841Z,99398.28
2022-09-28T01:48:32.537Z,99386.41
2022-09-28T01:50:38.839Z,99385.00
2022-09-28T01:52:53.957Z,99377.66
2022-09-28T01:55:12.042Z,99370.94
2022-09-28T01:57:16.594Z,99378.50
2022-09-28T01:59:25.079Z,99385.88
2022-09-28T02:01:40.792Z,99384.81
2022-09-28T02:03:52.724Z,99380.47
2022-09-28T02:05:58.223Z,99373.13
2022-09-28T02:08:27.063Z,99381.06
2022-09-28T02:10:44.488Z,99372.63
2022-09-28T02:12:51.763Z,99373.22
2022-09-28T02:15:01.888Z,99369.38
2022-09-28T02:17:06.723Z,99364.53
2022-09-28T02:19:14.125Z,99366.66
2022-09-28T02:21:40.275Z,99357.75
2022-09-28T02:23:56.696Z,99362.66
2022-09-28T02:26:06.847Z,99362.66
2022-09-28T02:28:13.523Z,99360.53
2022-09-28T02:30:18.110Z,99358.34
2022-09-28T02:32:20.818Z,99348.84
2022-09-28T02:34:23.435Z,99352.41
2022-09-28T02:36:27.733Z,99354.28
2022-09-28T02:38:33.377Z,99348.63
2022-09-28T02:40:38.138Z,99342.94
2022-09-28T02:43:24.404Z,99353.81
2022-09-28T02:45:48.108Z,99348.31
2022-09-28T02:48:43.765Z,99354.38
2022-09-28T02:50:55.496Z,99351.66
2022-09-28T02:53:10.073Z,99356.00
2022-09-28T02:55:43.744Z,99354.13
2022-09-28T02:58:11.114Z,99356.03
2022-09-28T03:00:19.443Z,99367.22
2022-09-28T03:02:28.075Z,99369.13
2022-09-28T03:04:54.128Z,99361.53
2022-09-28T03:07:06.267Z,99371.66
2022-09-28T03:09:20.914Z,99373.03
2022-09-28T03:11:31.008Z,99369.78
2022-09-28T03:13:34.709Z,99366.00
2022-09-28T03:15:37.489Z,99364.91
2022-09-28T03:17:40.585Z,99370.63
2022-09-28T03:19:43.167Z,99369.81
2022-09-28T03:21:45.758Z,99369.28
2022-09-28T03:23:48.298Z,99365.50
2022-09-28T03:25:50.834Z,99357.56
2022-09-28T03:27:53.497Z,99360.34
2022-09-28T03:29:56.091Z,99355.47
2022-09-28T03:31:58.747Z,99347.59
2022-09-28T03:34:01.325Z,99351.41
2022-09-28T03:36:04.112Z,99347.03
2022-09-28T03:38:06.774Z,99350.31
2022-09-28T03:40:09.795Z,99352.22
2022-09-28T03:42:13.656Z,99351.41
2022-09-28T03:44:16.349Z,99368.53
2022-09-28T03:46:18.967Z,99360.94
2022-09-28T03:48:31.237Z,99347.09
2022-09-28T03:50:34.858Z,99357.16
2022-09-28T03:52:37.445Z,99349.56
2022-09-28T03:54:40.498Z,99348.19
2022-09-28T03:56:43.013Z,99349.56
2022-09-28T03:58:45.540Z,99348.75
2022-09-28T04:00:49.171Z,99335.94
2022-09-28T04:02:51.699Z,99344.94
2022-09-28T04:04:54.322Z,99347.66
2022-09-28T04:06:56.846Z,99346.03
2022-09-28T04:08:59.436Z,99343.59
2022-09-28T04:11:02.603Z,99338.16
2022-09-28T04:13:05.421Z,99344.41
2022-09-28T04:15:08.387Z,99344.69
2022-09-28T04:17:10.958Z,99343.88
2022-09-28T04:19:14.289Z,99341.69
2022-09-28T04:21:19.762Z,99339.53
2022-09-28T04:23:22.398Z,99339.53
2022-09-28T04:25:24.967Z,99343.91
2022-09-28T04:27:46.222Z,99352.31
2022-09-28T04:29:48.811Z,99347.44
2022-09-28T04:31:52.822Z,99352.06
2022-09-28T04:33:57.289Z,99340.94
2022-09-28T04:36:00.824Z,99345.03
2022-09-28T04:38:03.433Z,99340.41
2022-09-28T04:40:06.845Z,99343.94
2022-09-28T04:42:11.269Z,99336.38
2022-09-28T04:44:13.897Z,99345.56
2022-09-28T04:46:16.813Z,99356.19
2022-09-28T04:48:19.437Z,99339.63
2022-09-28T04:50:22.106Z,99348.56
2022-09-28T04:52:24.610Z,99339.91
2022-09-28T04:54:27.127Z,99344.56
2022-09-28T04:56:29.684Z,99340.22
2022-09-28T04:58:33.063Z,99339.13
2022-09-28T05:00:35.898Z,99343.22
2022-09-28T05:02:39.234Z,99339.16
2022-09-28T05:04:41.910Z,99340.75
2022-09-28T05:06:44.866Z,99333.19
2022-09-28T05:08:47.805Z,99333.75
2022-09-28T05:11:01.181Z,99341.91
2022-09-28T05:13:04.050Z,99334.00
2022-09-28T05:15:07.063Z,99341.34
2022-09-28T05:17:10.595Z,99344.88
2022-09-28T05:19:13.264Z,99331.34
2022-09-28T05:21:16.632Z,99329.41
2022-09-28T05:23:19.201Z,99332.94
2022-09-28T05:25:21.853Z,99339.22
2022-09-28T05:27:24.387Z,99326.69
2022-09-28T05:29:30.156Z,99331.84
2022-09-28T05:31:35.067Z,99338.91
2022-09-28T05:33:38.387Z,99328.84
2022-09-28T05:35:41.052Z,99331.06
2022-09-28T05:37:44.037Z,99330.75
2022-09-28T05:39:46.814Z,99338.38
2022-09-28T05:41:49.745Z,99334.28
2022-09-28T05:43:52.760Z,99341.09
2022-09-28T05:45:56.018Z,99340.59
2022-09-28T05:47:58.814Z,99342.47
2022-09-28T05:50:01.514Z,99341.41
2022-09-28T05:52:04.155Z,99330.56
2022-09-28T05:54:06.998Z,99328.91
2022-09-28T05:56:09.657Z,99328.91
2022-09-28T05:58:12.340Z,99329.50
2022-09-28T06:00:15.156Z,99325.97
2022-09-28T06:02:17.858Z,99321.03
2022-09-28T06:04:21.087Z,99319.97
2022-09-28T06:06:23.689Z,99311.28
2022-09-28T06:08:26.268Z,99311.53
2022-09-28T06:10:29.421Z,99309.66
2022-09-28T06:12:34.248Z,99306.16
2022-09-28T06:14:36.829Z,99302.34
2022-09-28T06:16:43.783Z,99306.94
2022-09-28T06:18:46.744Z,99303.44
2022-09-28T06:20:49.366Z,99295.34
2022-09-28T06:22:55.436Z,99298.59
2022-09-28T06:24:58.094Z,99292.63
2022-09-28T06:27:00.657Z,99301.56
2022-09-28T06:29:03.564Z,99301.84
2022-09-28T06:31:06.292Z,99301.88
2022-09-28T06:33:12.950Z,99304.38
2022-09-28T06:35:15.650Z,99295.38
2022-09-28T06:37:18.325Z,99293.78
2022-09-28T06:39:20.898Z,99295.41
2022-09-28T06:41:23.643Z,99292.69
2022-09-28T06:43:26.222Z,99293.25
2022-09-28T06:45:30.366Z,99287.56
2022-09-28T06:47:33.695Z,99289.44
2022-09-28T06:49:36.199Z,99283.22
2022-09-28T06:51:38.765Z,99282.41
2022-09-28T06:53:41.368Z,99287.56
2022-09-28T06:55:48.393Z,99291.09
2022-09-28T06:57:59.372Z,99280.53
2022-09-28T07:00:02.167Z,99285.94
2022-09-28T07:02:08.157Z,99273.44
2022-09-28T07:04:11.019Z,99274.81
2022-09-28T07:06:13.667Z,99275.91
2022-09-28T07:08:17.691Z,99281.34
2022-09-28T07:10:20.324Z,99277.00
2022-09-28T07:12:26.323Z,99271.59
2022-09-28T07:14:44.194Z,99272.69
2022-09-28T07:17:10.761Z,99268.88
2022-09-28T07:19:14.641Z,99257.47
2022-09-28T07:21:27.556Z,99253.41
2022-09-28T07:23:33.116Z,99260.50
2022-09-28T07:25:41.193Z,99251.53
2022-09-28T07:27:43.831Z,99255.59
2022-09-28T07:29:46.559Z,99248.84
2022-09-28T07:31:49.083Z,99247.47
2022-09-28T07:33:52.133Z,99250.97
2022-09-28T07:35:56.092Z,99246.38
2022-09-28T07:38:04.381Z,99239.56
2022-09-28T07:40:27.586Z,99246.38
2022-09-28T07:42:31.149Z,99237.97
2022-09-28T07:44:33.892Z,99242.03
2022-09-28T07:46:37.254Z,99248.00
2022-09-28T07:48:43.730Z,99232.03
2022-09-28T07:50:57.400Z,99242.31
2022-09-28T07:53:00.736Z,99221.69
2022-09-28T07:55:07.175Z,99233.06
2022-09-28T07:57:10.096Z,99234.16
2022-09-28T07:59:13.903Z,99228.19
2022-09-28T08:01:17.773Z,99234.19
2022-09-28T08:03:22.911Z,99231.19
2022-09-28T08:05:25.851Z,99217.41
2022-09-28T08:07:28.467Z,99226.06
2022-09-28T08:09:31.110Z,99215.75
2022-09-28T08:11:33.680Z,99213.59
2022-09-28T08:13:37.526Z,99228.25
2022-09-28T08:15:40.058Z,99212.78
2022-09-28T08:17:47.143Z,99221.19
2022-09-28T08:20:08.116Z,99220.09
2022-09-28T08:22:10.726Z,99211.38
2022-09-28T08:24:15.659Z,99215.44
2022-09-28T08:26:18.343Z,99213.56
2022-09-28T08:28:22.863Z,99218.72
2022-09-28T08:30:25.545Z,99210.59
2022-09-28T08:32:28.418Z,99213.28
2022-09-28T08:34:31.010Z,99200.84
2022-09-28T08:36:34.028Z,99206.22
2022-09-28T08:38:36.728Z,99207.84
2022-09-28T08:41:26.940Z,99201.63
2022-09-28T08:43:54.386Z,99201.38
2022-09-28T08:45:59.437Z,99203.81
2022-09-28T08:48:37.714Z,99203.28
2022-09-28T08:50:51.786Z,99210.06
2022-09-28T08:52:59.860Z,99204.38
2022-09-28T08:55:11.560Z,99210.59
2022-09-28T08:57:36.284Z,99198.13
2022-09-28T09:00:00.545Z,99200.59
2022-09-28T09:02:04.988Z,99194.09
2022-09-28T09:04:08.368Z,99210.09
2022-09-28T09:06:31.958Z,99201.66
2022-09-28T09:08:40.252Z,99211.97
2022-09-28T09:10:53.752Z,99205.19
2022-09-28T09:13:21.062Z,99196.53
2022-09-28T09:15:26.267Z,99196.22
2022-09-28T09:17:51.407Z,99197.59
2022-09-28T09:19:59.324Z,99188.97
2022-09-28T09:22:17.785Z,99197.59
2022-09-28T09:24:29.705Z,99188.97
2022-09-28T09:26:39.410Z,99186.75
2022-09-28T09:28:48.279Z,99182.44
2022-09-28T09:31:22.449Z,99180.53
2022-09-28T09:33:39.687Z,99180.28
2022-09-28T09:36:00.871Z,99165.09
2022-09-28T09:38:22.209Z,99173.81
2022-09-28T09:40:53.901Z,99160.78
2022-09-28T09:43:17.675Z,99155.09
2022-09-28T09:45:45.483Z,99149.94
2022-09-28T09:48:03.845Z,99145.06
2022-09-28T09:50:18.215Z,99154.53
2022-09-28T09:52:45.337Z,99155.09
2022-09-28T09:55:15.019Z,99162.16
2022-09-28T09:57:26.830Z,99158.91
2022-09-28T09:59:37.533Z,99158.06
2022-09-28T10:01:43.158Z,99145.34
2022-09-28T10:03:48.542Z,99149.13
2022-09-28T10:06:03.984Z,99145.63
2022-09-28T10:08:09.195Z,99152.13
2022-09-28T10:10:25.619Z,99140.50
2022-09-28T10:12:29.283Z,99141.06
2022-09-28T10:14:31.871Z,99147.56
2022-09-28T10:16:36.036Z,99150.81
2022-09-28T10:18:39.106Z,99148.09
2022-09-28T10:20:45.158Z,99147.00
2022-09-28T10:22:48.201Z,99153.50
2022-09-28T10:24:57.688Z,99157.84
2022-09-28T10:27:07.856Z,99162.72
2022-09-28T10:29:21.448Z,99152.72
2022-09-28T10:31:43.391Z,99157.88
2022-09-28T10:33:45.960Z,99141.84
2022-09-28T10:35:48.902Z,99144.00
2022-09-28T10:37:55.358Z,99151.34
2022-09-28T10:39:58.358Z,99142.13
2022-09-28T10:42:04.537Z,99145.97
2022-09-28T10:44:17.178Z,99135.91
2022-09-28T10:46:24.362Z,99128.88
2022-09-28T10:48:28.734Z,99134.81
2022-09-28T10:50:31.368Z,99116.38
2022-09-28T10:52:42.340Z,99118.53
2022-09-28T10:54:53.700Z,99106.09
2022-09-28T10:56:58.341Z,99113.94
2022-09-28T10:59:00.863Z,99113.41
2022-09-28T11:01:18.880Z,99090.66
2022-09-28T11:03:29.873Z,99092.81
2022-09-28T11:05:34.124Z,99098.53
2022-09-28T11:07:46.751Z,99085.22
2022-09-28T11:09:50.769Z,99091.47
2022-09-28T11:11:53.526Z,99072.22
2022-09-28T11:14:03.856Z,99076.28
2022-09-28T11:16:07.310Z,99063.56
2022-09-28T11:18:31.705Z,99068.41
2022-09-28T11:20:36.116Z,99063.56
2022-09-28T11:22:44.926Z,99044.84
2022-09-28T11:24:50.889Z,99045.38
2022-09-28T11:26:57.199Z,99044.03
2022-09-28T11:28:59.879Z,99024.03
2022-09-28T11:31:05.011Z,99026.41
2022-09-28T11:33:15.161Z,99028.88
2022-09-28T11:35:33.126Z,99031.59
2022-09-28T11:38:00.727Z,99006.06
2022-09-28T11:40:27.564Z,98999.59
2022-09-28T11:42:57.612Z,99005.56
2022-09-28T11:45:24.699Z,99017.50
2022-09-28T11:47:47.526Z,99009.38
2022-09-28T11:50:22.929Z,98987.16
2022-09-28T11:52:53.054Z,98989.06
2022-09-28T11:55:02.180Z,98978.47
2022-09-28T11:57:15.074Z,98971.16
2022-09-28T11:59:18.587Z,98979.56
2022-09-28T12:01:31.410Z,98977.38
2022-09-28T12:03:44.116Z,98972.50
2022-09-28T12:06:00.365Z,98978.44
2022-09-28T12:08:30.697Z,98972.50
2022-09-28T12:10:38.127Z,98970.63
2022-09-28T12:12:49.821Z,98970.88
2022-09-28T12:16:17.206Z,98982.50
2022-09-28T12:18:19.536Z,98992.00
2022-09-28T12:20:30.749Z,99003.94
2022-09-28T12:22:40.934Z,98991.25
2022-09-28T12:24:49.268Z,98978.47
2022-09-28T12:26:58.544Z,98979.56
2022-09-28T12:29:12.143Z,98991.47
2022-09-28T12:31:39.041Z,98970.88
2022-09-28T12:33:48.333Z,98973.03
2022-09-28T12:36:30.390Z,98979.53
2022-09-28T12:39:18.625Z,98972.81
2022-09-28T12:41:42.601Z,98987.41
2022-09-28T12:44:04.114Z,99000.13
2022-09-28T12:46:28.968Z,98994.19
2022-09-28T12:48:42.853Z,98993.34
2022-09-28T12:51:12.776Z,98983.03
2022-09-28T12:53:39.240Z,98975.19
2022-09-28T12:56:01.211Z,98986.84
2022-09-28T12:58:28.043Z,98960.81
2022-09-28T13:00:59.739Z,98949.19
2022-09-28T13:03:13.495Z,98937.25
2022-09-28T13:05:36.282Z,98920.69
2022-09-28T13:08:00.963Z,98922.38
2022-09-28T13:10:25.841Z,98920.22
2022-09-28T13:12:57.653Z,98900.41
2022-09-28T13:15:28.995Z,98903.41
2022-09-28T13:18:02.854Z,98918.31
2022-09-28T13:20:23.496Z,98894.75
2022-09-28T13:22:34.619Z,98891.72
2022-09-28T13:24:44.487Z,98886.09
2022-09-28T13:26:48.159Z,98867.34
2022-09-28T13:29:03.689Z,98876.31
2022-09-28T13:31:07.492Z,98878.72
2022-09-28T13:33:35.874Z,98873.59
2022-09-28T13:35:44.141Z,98867.88
2022-09-28T13:38:18.626Z,98882.22
2022-09-28T13:40:59.684Z,98879.00
2022-09-28T13:43:26.520Z,98886.31
2022-09-28T13:45:47.141Z,98880.38
2022-09-28T13:47:56.863Z,98863.59
2022-09-28T13:50:16.823Z,98887.94
2022-09-28T13:52:43.653Z,98876.31
2022-09-28T13:55:22.306Z,98891.19
2022-09-28T13:57:47.821Z,98879.28
2022-09-28T13:59:54.384Z,98883.88
2022-09-28T14:02:21.140Z,98875.44
2022-09-28T14:04:46.733Z,98885.19
2022-09-28T14:07:08.805Z,98877.34
2022-09-28T14:09:14.210Z,98873.81
2022-09-28T14:11:55.765Z,98877.59
2022-09-28T14:14:24.430Z,98854.81
2022-09-28T14:16:32.300Z,98863.50
2022-09-28T14:18:36.702Z,98862.94
2022-09-28T14:20:47.566Z,98864.59
2022-09-28T14:23:01.019Z,98863.47
2022-09-28T14:25:09.388Z,98873.50
2022-09-28T14:27:34.935Z,98869.69
2022-09-28T14:29:39.546Z,98868.03
2022-09-28T14:31:46.002Z,98865.09
2022-09-28T14:33:59.322Z,98850.97
2022-09-28T14:36:07.933Z,98863.69
2022-09-28T14:38:36.691Z,98854.75
2022-09-28T14:41:10.970Z,98842.91
2022-09-28T14:43:36.139Z,98833.38
2022-09-28T14:45:39.715Z,98842.84
2022-09-28T14:48:11.833Z,98851.19
2022-09-28T14:50:27.739Z,98857.16
2022-09-28T14:52:43.622Z,98851.78
2022-09-28T14:54:54.676Z,98850.41
2022-09-28T14:57:08.948Z,98859.31
2022-09-28T14:59:22.446Z,98844.66
2022-09-28T15:01:26.697Z,98836.78
2022-09-28T15:03:33.302Z,98837.06
2022-09-28T15:05:44.190Z,98837.81
2022-09-28T15:07:52.374Z,98837.00
2022-09-28T15:09:57.292Z,98836.41
2022-09-28T15:12:03.735Z,98831.59
2022-09-28T15:14:08.505Z,98822.06
2022-09-28T15:16:15.649Z,98818.28
2022-09-28T15:18:43.968Z,98812.53
2022-09-28T15:20:49.153Z,98835.34
2022-09-28T15:22:58.089Z,98805.47
2022-09-28T15:25:03.058Z,98808.44
2022-09-28T15:27:19.178Z,98824.97
2022-09-28T15:29:23.265Z,98786.66
2022-09-28T15:31:28.639Z,98815.41
2022-09-28T15:33:54.066Z,98808.59
2022-09-28T15:36:02.173Z,98801.25
2022-09-28T15:38:04.936Z,98803.69
2022-09-28T15:40:15.426Z,98796.34
2022-09-28T15:42:19.169Z,98776.63
2022-09-28T15:44:35.430Z,98800.91
2022-09-28T15:46:41.620Z,98796.81
2022-09-28T15:48:55.596Z,98788.94
2022-09-28T15:51:12.057Z,98803.53
2022-09-28T15:53:18.990Z,98781.00
2022-09-28T15:55:28.676Z,98795.34
2022-09-28T15:57:37.097Z,98775.22
2022-09-28T15:59:41.222Z,98773.84
2022-09-28T16:01:44.957Z,98781.88
2022-09-28T16:03:47.628Z,98776.72
2022-09-28T16:05:51.858Z,98780.78
2022-09-28T16:07:56.267Z,98788.31
2022-09-28T16:10:03.150Z,98780.94
2022-09-28T16:12:11.648Z,98775.72
2022-09-28T16:14:21.326Z,98780.63
2022-09-28T16:16:30.996Z,98773.00
2022-09-28T16:18:38.465Z,98783.31
2022-09-28T16:20:42.767Z,98783.00
2022-09-28T16:22:45.854Z,98781.69
2022-09-28T16:24:56.420Z,98784.91
2022-09-28T16:27:05.073Z,98776.69
2022-09-28T16:29:33.058Z,98782.66
2022-09-28T16:31:37.411Z,98788.06
2022-09-28T16:33:52.633Z,98781.50
2022-09-28T16:35:55.533Z,98798.31
2022-09-28T16:38:15.701Z,98788.53
2022-09-28T16:40:18.336Z,98791.75
2022-09-28T16:42:20.949Z,98792.28
2022-09-28T16:44:26.753Z,98763.00
2022-09-28T16:46:37.496Z,98772.91
2022-09-28T16:48:48.949Z,98778.09
2022-09-28T16:50:51.558Z,98778.53
2022-09-28T16:53:30.011Z,98781.25
2022-09-28T16:55:41.198Z,98769.84
2022-09-28T16:57:45.697Z,98779.00
2022-09-28T16:59:48.318Z,98763.81
2022-09-28T17:01:51.169Z,98751.25
2022-09-28T17:03:54.250Z,98749.03
2022-09-28T17:05:57.247Z,98753.56
2022-09-28T17:08:02.336Z,98747.34
2022-09-28T17:10:15.658Z,98755.22
2022-09-28T17:12:29.115Z,98744.06
2022-09-28T17:14:33.010Z,98737.78
2022-09-28T17:17:06.141Z,98731.28
2022-09-28T17:19:01.014Z,98744.06
2022-09-28T17:21:06.076Z,98736.91
2022-09-28T17:23:08.767Z,98737.00
2022-09-28T17:25:12.805Z,98761.28
2022-09-28T17:27:19.765Z,98739.25
2022-09-28T17:29:22.503Z,98748.72
2022-09-28T17:31:26.205Z,98753.06
2022-09-28T17:33:29.739Z,98744.22
2022-09-28T17:35:34.138Z,98758.63
2022-09-28T17:37:41.111Z,98754.00
2022-09-28T17:39:43.718Z,98754.22
2022-09-28T17:41:46.311Z,98757.72
2022-09-28T17:43:49.542Z,98759.78
2022-09-28T17:45:52.338Z,98755.16
2022-09-28T17:47:56.041Z,98755.16
2022-09-28T17:49:58.746Z,98755.66
2022-09-28T17:52:01.802Z,98763.53
2022-09-28T17:54:06.762Z,98749.63
2022-09-28T17:56:10.061Z,98753.66
2022-09-28T17:58:17.667Z,98757.69
2022-09-28T18:00:20.465Z,98752.25
2022-09-28T18:02:23.929Z,98752.47
2022-09-28T18:04:50.301Z,98738.47
2022-09-28T18:06:49.177Z,98730.44
2022-09-28T18:08:51.773Z,98735.03
2022-09-28T18:10:54.960Z,98731.81
2022-09-28T18:12:57.490Z,98730.91
2022-09-28T18:15:02.974Z,98732.22
2022-09-28T18:17:06.272Z,98725.69
2022-09-28T18:19:08.969Z,98734.38
2022-09-28T18:21:11.754Z,98743.56
2022-09-28T18:23:14.379Z,98745.16
2022-09-28T18:25:17.287Z,98746.47
2022-09-28T18:27:19.920Z,98748.91
2022-09-28T18:29:22.545Z,98746.16
2022-09-28T18:31:25.166Z,98748.28
2022-09-28T18:33:27.792Z,98743.88
2022-09-28T18:35:30.504Z,98728.06
2022-09-28T18:37:40.057Z,98729.66
2022-09-28T18:39:42.648Z,98733.69
2022-09-28T18:41:45.258Z,98719.78
2022-09-28T18:43:51.142Z,98721.41
2022-09-28T18:45:55.443Z,98709.41
2022-09-28T18:47:58.238Z,98693.59
2022-09-28T18:50:01.068Z,98693.28
2022-09-28T18:52:03.866Z,98692.38
2022-09-28T18:54:07.769Z,98686.13
2022-09-28T18:56:13.141Z,98696.50
2022-09-28T18:58:15.727Z,98683.91
2022-09-28T19:00:18.897Z,98672.72
2022-09-28T19:02:21.782Z,98664.56
2022-09-28T19:04:24.586Z,98658.03
2022-09-28T19:06:28.052Z,98657.09
2022-09-28T19:08:31.110Z,98662.16
2022-09-28T19:10:33.762Z,98666.75
2022-09-28T19:12:36.335Z,98663.25
2022-09-28T19:14:39.194Z,98660.50
2022-09-28T19:16:43.322Z,98662.16
2022-09-28T19:18:45.904Z,98668.91
2022-09-28T19:20:48.484Z,98660.09
2022-09-28T19:22:51.098Z,98673.09
2022-09-28T19:24:53.781Z,98660.00
2022-09-28T19:26:56.816Z,98658.06
2022-09-28T19:29:00.213Z,98658.91
2022-09-28T19:31:05.490Z,98660.50
2022-09-28T19:33:08.023Z,98651.03
2022-09-28T19:35:10.606Z,98653.84
2022-09-28T19:37:13.165Z,98664.41
2022-09-28T19:39:15.969Z,98649.69
2022-09-28T19:41:43.075Z,98656.75
2022-09-28T19:43:46.413Z,98647.47
2022-09-28T19:45:52.286Z,98654.03
2022-09-28T19:47:58.737Z,98652.94
2022-09-28T19:50:01.972Z,98655.03
2022-09-28T19:52:16.161Z,98647.38
2022-09-28T19:54:21.150Z,98646.88
2022-09-28T19:56:24.120Z,98647.66
2022-09-28T19:58:30.905Z,98647.53
2022-09-28T20:00:33.530Z,98646.13
2022-09-28T20:02:36.151Z,98645.31
2022-09-28T20:04:38.841Z,98643.41
2022-09-28T20:06:41.861Z,98649.03
2022-09-28T20:08:44.844Z,98649.84
2022-09-28T20:10:52.539Z,98650.66
2022-09-28T20:12:55.121Z,98647.13
2022-09-28T20:14:58.025Z,98641.69
2022-09-28T20:17:00.670Z,98633.50
2022-09-28T20:19:04.917Z,98637.53
2022-09-28T20:21:18.154Z,98636.44
2022-09-28T20:23:21.822Z,98636.31
2022-09-28T20:25:24.421Z,98641.75
2022-09-28T20:27:27.238Z,98640.63
2022-09-28T20:29:34.875Z,98636.81
2022-09-28T20:31:38.036Z,98648.50
2022-09-28T20:33:42.814Z,98637.81
2022-09-28T20:35:47.014Z,98631.88
2022-09-28T20:37:50.393Z,98625.28
2022-09-28T20:39:53.685Z,98610.25
2022-09-28T20:41:56.414Z,98627.88
2022-09-28T20:44:04.114Z,98622.16
2022-09-28T20:46:10.570Z,98615.69
2022-09-28T20:48:13.346Z,98619.28
2022-09-28T20:50:15.905Z,98625.38
2022-09-28T20:52:18.784Z,98618.00
2022-09-28T20:54:21.907Z,98634.53
2022-09-28T20:56:25.833Z,98631.47
2022-09-28T20:58:29.124Z,98624.13
2022-09-28T21:00:31.682Z,98625.09
2022-09-28T21:02:34.236Z,98613.13
2022-09-28T21:04:36.952Z,98619.66
2022-09-28T21:06:41.524Z,98612.47
2022-09-28T21:08:45.980Z,98612.13
2022-09-28T21:10:51.094Z,98603.81
2022-09-28T21:12:53.579Z,98604.09
2022-09-28T21:14:56.179Z,98602.69
2022-09-28T21:16:58.764Z,98609.13
2022-09-28T21:19:01.371Z,98608.03
2022-09-28T21:21:09.570Z,98605.16
2022-09-28T21:23:12.227Z,98607.56
2022-09-28T21:25:15.066Z,98616.25
2022-09-28T21:27:17.606Z,98608.38
2022-09-28T21:29:20.117Z,98598.66
2022-09-28T21:31:28.470Z,98589.69
2022-09-28T21:33:32.046Z,98590.47
2022-09-28T21:35:35.838Z,98585.69
2022-09-28T21:37:38.346Z,98591.97
2022-09-28T21:39:40.836Z,98593.25
2022-09-28T21:41:44.256Z,98577.50
2022-09-28T21:43:46.792Z,98578.78
2022-09-28T21:45:51.230Z,98583.16
2022-09-28T21:47:54.322Z,98579.47
2022-09-28T21:49:56.844Z,98576.91
2022-09-28T21:52:02.223Z,98574.53
2022-09-28T21:54:05.051Z,98582.38
2022-09-28T21:56:10.710Z,98580.13
2022-09-28T21:58:13.299Z,98570.03
2022-09-28T22:00:18.181Z,98564.50
2022-09-28T22:02:21.735Z,98560.63
2022-09-28T22:04:24.326Z,98570.91
2022-09-28T22:06:31.078Z,98575.25
2022-09-28T22:08:35.398Z,98575.75
2022-09-28T22:10:37.972Z,98571.88
2022-09-28T22:12:40.495Z,98580.06
2022-09-28T22:14:42.989Z,98558.44
2022-09-28T22:17:26.815Z,98582.66
2022-09-28T22:19:30.993Z,98567.41
2022-09-28T22:21:35.115Z,98568.06
2022-09-28T22:23:38.786Z,98568.41
2022-09-28T22:25:41.197Z,98556.22
2022-09-28T22:27:45.463Z,98564.25
2022-09-28T22:30:38.546Z,98569.84
2022-09-28T22:32:41.274Z,98562.00
2022-09-28T22:34:43.766Z,98556.38
2022-09-28T22:36:46.386Z,98562.97
2022-09-28T22:38:49.506Z,98555.72
2022-09-28T22:40:56.367Z,98564.09
2022-09-28T22:42:59.042Z,98578.53
2022-09-28T22:45:02.388Z,98571.31
2022-09-28T22:47:06.498Z,98572.94
2022-09-28T22:49:10.709Z,98571.00
2022-09-28T22:51:13.962Z,98570.69
2022-09-28T22:53:16.630Z,98567.81
2022-09-28T22:55:19.334Z,98567.81
2022-09-28T22:57:21.957Z,98555.00
2022-09-28T22:59:24.619Z,98564.28
2022-09-28T23:01:29.831Z,98553.22
2022-09-28T23:03:32.642Z,98561.75
2022-09-28T23:05:35.327Z,98559.81
2022-09-28T23:07:38.871Z,98554.00
2022-09-28T23:09:41.477Z,98558.69
2022-09-28T23:11:44.027Z,98552.91
2022-09-28T23:13:54.028Z,98562.88
2022-09-28T23:16:11.802Z,98551.47
2022-09-28T23:18:14.424Z,98550.81
2022-09-28T23:20:17.080Z,98549.72
2022-09-28T23:22:19.773Z,98547.13
2022-09-28T23:24:22.389Z,98544.09
2022-09-28T23:26:27.867Z,98546.66
2022-09-28T23:28:30.508Z,98546.66
2022-09-28T23:30:33.074Z,98540.88
2022-09-28T23:32:35.620Z,98549.25
2022-09-28T23:34:38.207Z,98541.53
2022-09-28T23:36:41.046Z,98540.09
2022-09-28T23:38:44.099Z,98542.66
2022-09-28T23:40:47.619Z,98538.19
2022-09-28T23:42:50.274Z,98537.69
2022-09-28T23:44:53.094Z,98541.41
2022-09-28T23:46:55.803Z,98546.69
2022-09-28T23:48:58.360Z,98543.78
2022-09-28T23:51:02.334Z,98549.91
2022-09-28T23:53:05.819Z,98550.22
2022-09-28T23:55:08.819Z,98550.72
2022-09-28T23:57:11.663Z,98554.22
2022-09-28T23:59:14.322Z,98554.41
